Time;durP1;ratioP1;P1;durP2;ratioP2;P2;SDS_P1;SDS_P2;PMS_P1;PMS_P2;Temp;Humidity;BMP_temperature;BMP_pressure;BME280_temperature;BME280_humidity;BME280_pressure;Samples;Min_cycle;Max_cycle;Signal;HPM_P1;HPM_P2
2021/01/26 00:02:09;;;;;;;22.57;20.13;;;2.30;99.90;;;;;;5104293;27;20457;-71
2021/01/26 00:04:36;;;;;;;24.83;21.80;;;2.30;99.90;;;;;;5104120;27;20495;-71
2021/01/26 00:07:02;;;;;;;21.90;18.60;;;2.30;99.90;;;;;;5101696;27;20548;-71
2021/01/26 00:09:29;;;;;;;23.70;20.03;;;2.40;99.90;;;;;;5104307;27;20456;-70
2021/01/26 00:11:56;;;;;;;22.87;20.20;;;2.40;99.90;;;;;;5113600;27;20465;-71
2021/01/26 00:14:22;;;;;;;21.40;19.23;;;2.30;99.90;;;;;;5109041;27;20464;-69
2021/01/26 00:16:50;;;;;;;27.43;19.10;;;2.40;99.90;;;;;;5104004;27;20494;-71
2021/01/26 00:19:17;;;;;;;23.53;21.03;;;2.40;99.90;;;;;;5105602;27;20499;-71
2021/01/26 00:21:44;;;;;;;19.30;17.63;;;2.30;99.90;;;;;;5110045;27;20459;-70
2021/01/26 00:24:11;;;;;;;22.73;18.67;;;2.30;99.90;;;;;;5104869;27;20464;-70
2021/01/26 00:26:38;;;;;;;25.97;20.07;;;2.30;99.90;;;;;;5115513;27;20977;-71
2021/01/26 00:29:08;;;;;;;16.77;15.47;;;2.30;99.90;;;;;;5101476;27;20824;-71
2021/01/26 00:31:34;;;;;;;21.60;19.10;;;2.30;99.90;;;;;;5104546;28;20465;-71
2021/01/26 00:34:02;;;;;;;19.00;17.07;;;2.30;99.90;;;;;;5102622;28;20496;-71
2021/01/26 00:36:29;;;;;;;21.80;19.00;;;2.30;99.90;;;;;;5104288;28;20483;-70
2021/01/26 00:38:56;;;;;;;26.20;18.40;;;2.30;99.90;;;;;;5098013;28;20467;-72
2021/01/26 00:41:22;;;;;;;30.73;18.10;;;2.30;99.90;;;;;;5099138;28;20998;-72
2021/01/26 00:43:49;;;;;;;21.57;17.97;;;2.30;99.90;;;;;;5106805;28;20463;-71
2021/01/26 00:46:18;;;;;;;26.00;19.00;;;2.30;99.90;;;;;;5109276;28;20570;-71
2021/01/26 00:48:45;;;;;;;22.10;19.90;;;2.30;99.90;;;;;;5103535;28;20972;-71
2021/01/26 00:51:11;;;;;;;21.03;18.97;;;2.30;99.90;;;;;;5107102;27;20454;-71
2021/01/26 00:53:38;;;;;;;18.63;16.87;;;2.30;99.90;;;;;;5107589;28;20464;-72
2021/01/26 00:56:05;;;;;;;21.33;19.10;;;2.30;99.90;;;;;;5107234;28;20689;-70
2021/01/26 00:58:31;;;;;;;23.53;17.23;;;2.40;99.90;;;;;;5098197;28;20456;-70
2021/01/26 01:00:57;;;;;;;25.63;17.90;;;2.40;99.90;;;;;;5101172;28;21249;-72
2021/01/26 01:03:24;;;;;;;21.53;18.13;;;2.40;99.90;;;;;;5100473;28;20474;-71
2021/01/26 01:05:51;;;;;;;19.80;17.70;;;2.40;99.90;;;;;;5104310;28;20464;-71
2021/01/26 01:08:17;;;;;;;18.60;16.67;;;2.40;99.90;;;;;;5116023;27;20459;-72
2021/01/26 01:10:43;;;;;;;27.20;19.20;;;2.50;99.90;;;;;;5114106;27;20470;-70
2021/01/26 01:13:11;;;;;;;27.63;18.40;;;2.50;99.90;;;;;;5105344;28;20488;-71
2021/01/26 01:15:39;;;;;;;18.83;17.10;;;2.60;99.90;;;;;;5105485;28;20489;-72
2021/01/26 01:18:07;;;;;;;19.73;17.80;;;2.60;99.90;;;;;;5103534;28;20459;-73
2021/01/26 01:20:34;;;;;;;20.07;17.97;;;2.50;99.90;;;;;;5099767;28;20474;-72
2021/01/26 01:23:00;;;;;;;22.83;15.93;;;2.50;99.90;;;;;;5108890;27;20461;-72
2021/01/26 01:25:27;;;;;;;21.40;17.97;;;2.50;99.90;;;;;;5113597;27;20475;-74
2021/01/26 01:27:53;;;;;;;22.33;19.93;;;2.60;99.90;;;;;;5109483;27;20785;-70
2021/01/26 01:30:22;;;;;;;19.57;17.80;;;2.60;99.90;;;;;;5114161;27;20487;-73
2021/01/26 01:32:49;;;;;;;19.87;16.30;;;2.60;99.90;;;;;;5107216;27;20980;-73
2021/01/26 01:35:17;;;;;;;19.67;17.93;;;2.60;99.90;;;;;;5105615;28;20995;-72
2021/01/26 01:37:46;;;;;;;26.13;20.30;;;2.60;99.90;;;;;;5097390;28;20463;-73
2021/01/26 01:40:17;;;;;;;24.20;19.47;;;2.60;99.90;;;;;;5106090;28;20461;-73
2021/01/26 01:42:43;;;;;;;22.13;18.10;;;2.60;99.90;;;;;;5109561;28;20467;-74
2021/01/26 01:45:10;;;;;;;20.63;17.83;;;2.50;99.90;;;;;;5099634;28;20557;-73
2021/01/26 01:47:43;;;;;;;19.97;18.37;;;2.60;99.90;;;;;;5101496;28;20457;-73
2021/01/26 01:50:17;;;;;;;21.50;19.73;;;2.60;99.90;;;;;;5117524;27;20472;-72
2021/01/26 01:52:44;;;;;;;21.83;19.50;;;2.60;99.90;;;;;;5108643;28;20513;-72
2021/01/26 01:55:16;;;;;;;18.20;16.67;;;2.60;99.90;;;;;;5112566;27;20499;-73
2021/01/26 01:57:47;;;;;;;19.40;17.57;;;2.60;99.90;;;;;;5102096;27;20517;-73
2021/01/26 02:00:18;;;;;;;20.60;18.67;;;2.60;99.90;;;;;;5112411;27;20555;-72
2021/01/26 02:02:51;;;;;;;20.53;18.60;;;2.60;99.90;;;;;;5107096;28;20498;-72
2021/01/26 02:05:18;;;;;;;25.40;20.27;;;2.50;99.90;;;;;;5101381;28;20551;-73
2021/01/26 02:07:46;;;;;;;19.50;17.87;;;2.50;99.90;;;;;;5105769;28;20464;-73
2021/01/26 02:10:12;;;;;;;22.63;18.00;;;2.50;99.90;;;;;;5098645;28;20464;-73
2021/01/26 02:12:39;;;;;;;21.57;19.20;;;2.50;99.90;;;;;;5101680;28;20456;-73
2021/01/26 02:15:07;;;;;;;22.37;19.97;;;2.60;99.90;;;;;;5104642;27;20484;-72
2021/01/26 02:17:58;;;;;;;21.40;18.83;;;2.60;99.90;;;;;;5111979;27;20471;-73
2021/01/26 02:21:00;;;;;;;28.97;19.50;;;2.60;99.90;;;;;;5100353;28;20518;-73
2021/01/26 02:24:03;;;;;;;20.37;18.30;;;2.60;99.90;;;;;;5094882;28;21167;-73
2021/01/26 02:27:08;;;;;;;19.53;17.53;;;2.60;99.90;;;;;;5097718;28;20832;-72
2021/01/26 02:30:10;;;;;;;19.80;18.00;;;2.60;99.90;;;;;;5098046;28;20490;-72
2021/01/26 02:32:59;;;;;;;19.07;17.37;;;2.60;99.90;;;;;;5087174;28;20476;-73
2021/01/26 02:36:05;;;;;;;21.80;18.63;;;2.60;99.90;;;;;;5099827;28;20488;-74
2021/01/26 02:39:02;;;;;;;17.13;15.63;;;2.60;99.90;;;;;;5103574;28;20449;-73
2021/01/26 02:41:37;;;;;;;20.03;18.07;;;2.60;99.90;;;;;;5100810;28;20460;-73
2021/01/26 02:44:11;;;;;;;20.07;17.90;;;2.70;99.90;;;;;;5097644;28;20475;-74
2021/01/26 02:46:44;;;;;;;22.57;20.20;;;2.70;99.90;;;;;;5104484;28;20446;-73
2021/01/26 02:49:21;;;;;;;24.53;20.80;;;2.70;99.90;;;;;;5110528;28;20464;-74
2021/01/26 02:51:52;;;;;;;25.47;20.10;;;2.70;99.90;;;;;;5102120;28;20525;-72
2021/01/26 02:54:25;;;;;;;18.93;17.50;;;2.60;99.90;;;;;;5102270;28;20456;-73
2021/01/26 02:57:00;;;;;;;21.27;19.17;;;2.70;99.90;;;;;;5105536;28;20484;-73
2021/01/26 02:59:35;;;;;;;23.23;20.90;;;2.70;99.90;;;;;;5104579;28;20466;-73
2021/01/26 03:02:09;;;;;;;19.13;17.00;;;2.70;99.90;;;;;;5115476;27;20979;-74
2021/01/26 03:04:42;;;;;;;20.33;18.33;;;2.70;99.90;;;;;;5109595;27;20551;-73
2021/01/26 03:07:12;;;;;;;27.57;18.80;;;2.80;99.90;;;;;;5096042;28;20462;-74
2021/01/26 03:09:42;;;;;;;25.77;18.13;;;2.80;99.90;;;;;;5113821;27;20829;-73
2021/01/26 03:12:14;;;;;;;16.70;15.00;;;2.80;99.90;;;;;;5113017;27;21002;-73
2021/01/26 03:14:45;;;;;;;16.77;15.47;;;2.80;99.90;;;;;;5103168;28;20489;-73
2021/01/26 03:17:16;;;;;;;20.60;18.40;;;2.80;99.90;;;;;;5111302;27;20492;-73
2021/01/26 03:19:50;;;;;;;24.13;18.87;;;2.70;99.90;;;;;;5099175;27;20859;-73
2021/01/26 03:22:21;;;;;;;21.03;19.17;;;2.70;99.90;;;;;;5108246;27;20484;-73
2021/01/26 03:24:52;;;;;;;25.53;22.23;;;2.70;99.90;;;;;;5111071;27;20460;-73
2021/01/26 03:27:27;;;;;;;22.97;21.03;;;2.70;99.90;;;;;;5105031;27;20795;-73
2021/01/26 03:29:57;;;;;;;27.17;21.93;;;2.70;99.90;;;;;;5108541;27;20492;-73
2021/01/26 03:32:29;;;;;;;27.07;24.20;;;2.70;99.90;;;;;;5107141;27;20548;-73
2021/01/26 03:34:55;;;;;;;26.30;23.77;;;2.60;99.90;;;;;;5103947;28;21043;-72
2021/01/26 03:37:23;;;;;;;28.50;25.40;;;2.60;99.90;;;;;;5101187;28;20457;-73
2021/01/26 03:39:51;;;;;;;26.83;24.00;;;2.50;99.90;;;;;;5107268;27;20555;-73
2021/01/26 03:42:17;;;;;;;26.10;24.00;;;2.50;99.90;;;;;;5105001;28;20500;-73
2021/01/26 03:44:46;;;;;;;32.03;23.00;;;2.50;99.90;;;;;;5101040;28;20479;-73
2021/01/26 03:47:27;;;;;;;26.13;23.67;;;2.40;99.90;;;;;;5113685;27;20465;-73
2021/01/26 03:50:13;;;;;;;24.87;21.20;;;2.40;99.90;;;;;;5104297;27;20700;-73
2021/01/26 03:53:33;;;;;;;23.37;21.43;;;2.50;99.90;;;;;;5104437;28;20484;-72
2021/01/26 03:56:09;;;;;;;38.27;25.90;;;2.50;99.90;;;;;;4997953;28;20492;-73
2021/01/26 03:58:48;;;;;;;24.63;22.53;;;2.50;99.90;;;;;;4999657;28;20512;-72
2021/01/26 04:01:24;;;;;;;26.87;24.23;;;2.50;99.90;;;;;;5073131;28;20532;-73
2021/01/26 04:03:57;;;;;;;24.47;22.30;;;2.50;99.90;;;;;;5103752;28;20464;-73
2021/01/26 04:06:34;;;;;;;23.27;21.20;;;2.60;99.90;;;;;;5099430;27;20460;-73
2021/01/26 04:09:05;;;;;;;34.03;21.63;;;2.60;99.90;;;;;;5094798;28;20503;-73
2021/01/26 04:11:37;;;;;;;23.00;21.23;;;2.60;99.90;;;;;;5107342;28;21064;-73
2021/01/26 04:14:08;;;;;;;25.40;23.00;;;2.70;99.90;;;;;;5099999;28;20463;-73
2021/01/26 04:16:41;;;;;;;23.53;21.40;;;2.70;99.90;;;;;;5103714;27;20491;-73
2021/01/26 04:19:10;;;;;;;27.90;22.30;;;2.70;99.90;;;;;;5101385;28;20463;-72
2021/01/26 04:21:38;;;;;;;26.27;23.87;;;2.70;99.90;;;;;;5104847;28;20465;-72
2021/01/26 04:24:06;;;;;;;32.53;23.77;;;2.70;99.90;;;;;;5098316;28;20471;-73
2021/01/26 04:26:35;;;;;;;25.93;23.20;;;2.70;99.90;;;;;;5101921;28;20459;-74
2021/01/26 04:29:02;;;;;;;23.90;22.00;;;2.60;99.90;;;;;;5102956;28;20974;-73
2021/01/26 04:31:28;;;;;;;25.93;23.53;;;2.70;99.90;;;;;;5100678;28;20457;-74
2021/01/26 04:33:55;;;;;;;24.40;22.50;;;2.60;99.90;;;;;;5101104;27;20464;-73
2021/01/26 04:36:24;;;;;;;24.17;22.00;;;2.70;99.90;;;;;;5103152;27;20499;-73
2021/01/26 04:38:50;;;;;;;27.20;24.60;;;2.80;99.90;;;;;;5100018;27;20489;-72
2021/01/26 04:41:28;;;;;;;24.47;22.00;;;2.70;99.90;;;;;;5099797;27;20454;-74
2021/01/26 04:44:17;;;;;;;31.63;23.20;;;2.70;99.90;;;;;;5108560;28;21061;-73
2021/01/26 04:46:53;;;;;;;24.70;22.37;;;2.80;99.90;;;;;;5097636;27;21035;-74
2021/01/26 04:49:27;;;;;;;23.83;21.90;;;2.80;99.90;;;;;;5101832;28;20813;-73
2021/01/26 04:52:04;;;;;;;27.27;24.37;;;2.80;99.90;;;;;;5100900;28;20476;-73
2021/01/26 04:54:47;;;;;;;22.70;20.80;;;2.80;99.90;;;;;;5102454;28;20498;-73
2021/01/26 04:57:43;;;;;;;25.73;23.57;;;2.80;99.90;;;;;;5102870;28;20484;-73
2021/01/26 05:00:20;;;;;;;26.90;24.70;;;2.80;99.90;;;;;;5069257;28;20520;-73
2021/01/26 05:03:24;;;;;;;31.17;24.33;;;2.70;99.90;;;;;;5090399;28;20520;-74
2021/01/26 05:05:58;;;;;;;29.13;22.77;;;2.70;99.90;;;;;;5092300;28;20945;-74
2021/01/26 05:08:27;;;;;;;22.97;20.70;;;2.70;99.90;;;;;;5094076;28;21010;-73
2021/01/26 05:11:00;;;;;;;33.30;24.70;;;2.70;99.90;;;;;;5094186;28;20468;-74
2021/01/26 05:13:32;;;;;;;25.33;22.97;;;2.70;99.90;;;;;;5108389;28;20469;-74
2021/01/26 05:16:04;;;;;;;28.17;24.53;;;2.70;99.90;;;;;;5100886;28;20483;-74
2021/01/26 05:18:36;;;;;;;23.70;21.90;;;2.60;99.90;;;;;;5099650;28;20454;-73
2021/01/26 05:21:08;;;;;;;25.30;23.30;;;2.60;99.90;;;;;;5093652;28;20476;-73
2021/01/26 05:23:40;;;;;;;25.90;23.23;;;2.70;99.90;;;;;;5096865;28;20468;-73
2021/01/26 05:26:08;;;;;;;28.40;23.00;;;2.60;99.90;;;;;;5101859;28;20456;-73
2021/01/26 05:28:37;;;;;;;23.37;21.40;;;2.60;99.90;;;;;;5104291;28;20462;-73
2021/01/26 05:31:08;;;;;;;27.63;25.07;;;2.70;99.90;;;;;;5102356;28;20510;-74
2021/01/26 05:33:37;;;;;;;25.93;23.40;;;2.60;99.90;;;;;;5097563;28;20458;-75
2021/01/26 05:36:04;;;;;;;25.97;23.83;;;2.60;99.90;;;;;;5098121;28;20492;-75
2021/01/26 05:38:31;;;;;;;36.37;25.23;;;2.60;99.90;;;;;;5099129;28;20464;-74
2021/01/26 05:41:02;;;;;;;28.40;23.97;;;2.50;99.90;;;;;;5095246;28;20449;-74
2021/01/26 05:43:31;;;;;;;25.77;23.30;;;2.40;99.90;;;;;;5101025;28;20958;-75
2021/01/26 05:46:00;;;;;;;20.67;19.20;;;2.30;99.90;;;;;;5100643;28;20464;-74
2021/01/26 05:48:29;;;;;;;18.67;17.67;;;2.40;99.90;;;;;;5101647;28;20868;-74
2021/01/26 05:54:10;;;;;;;18.83;17.83;;;2.50;99.90;;;;;;5118691;27;20552;-75
2021/01/26 05:56:46;;;;;;;18.70;17.70;;;2.60;99.90;;;;;;5117530;28;20463;-75
2021/01/26 05:59:20;;;;;;;19.17;18.17;;;2.60;99.90;;;;;;5119130;28;20455;-75
2021/01/26 06:01:50;;;;;;;18.73;17.73;;;2.60;99.90;;;;;;5116297;27;20483;-75
2021/01/26 06:04:18;;;;;;;18.80;17.80;;;2.60;99.90;;;;;;5118554;28;20463;-75
2021/01/26 06:06:52;;;;;;;19.27;18.17;;;2.60;99.90;;;;;;5118078;27;20970;-75
2021/01/26 06:09:32;;;;;;;18.70;17.70;;;2.60;99.90;;;;;;5120645;28;20483;-74
2021/01/26 06:12:11;;;;;;;17.33;16.43;;;2.60;99.90;;;;;;5115525;28;21192;-75
2021/01/26 06:14:39;;;;;;;16.80;16.00;;;2.60;99.90;;;;;;5117693;28;20709;-76
2021/01/26 06:17:08;;;;;;;16.33;15.53;;;2.50;99.90;;;;;;5122265;28;20483;-75
2021/01/26 06:19:35;;;;;;;17.10;16.30;;;2.50;99.90;;;;;;5122228;28;21010;-75
2021/01/26 06:22:04;;;;;;;16.40;15.60;;;2.40;99.90;;;;;;5118190;28;20825;-75
2021/01/26 06:24:34;;;;;;;16.87;16.07;;;2.40;99.90;;;;;;5117015;28;20966;-75
2021/01/26 06:27:38;;;;;;;16.90;16.10;;;2.40;99.90;;;;;;5120835;28;20463;-75
2021/01/26 06:30:21;;;;;;;16.60;15.80;;;2.50;99.90;;;;;;5078728;28;20458;-75
2021/01/26 06:33:20;;;;;;;16.33;15.53;;;2.60;99.90;;;;;;5118730;27;20480;-75
2021/01/26 06:35:56;;;;;;;16.87;16.07;;;2.60;99.90;;;;;;5096665;27;20459;-75
2021/01/26 06:38:42;;;;;;;16.63;15.83;;;2.70;99.90;;;;;;5112426;28;20460;-75
2021/01/26 06:41:23;;;;;;;17.63;16.73;;;2.70;99.90;;;;;;5115420;27;20461;-73
2021/01/26 06:44:17;;;;;;;18.47;17.47;;;2.70;99.90;;;;;;5121892;28;20804;-74
2021/01/26 06:47:01;;;;;;;17.80;16.90;;;2.60;99.90;;;;;;5121706;28;20542;-74
2021/01/26 06:49:39;;;;;;;17.93;17.03;;;2.60;99.90;;;;;;5118403;28;20961;-74
2021/01/26 06:52:29;;;;;;;18.83;17.83;;;2.50;99.90;;;;;;5113135;28;20491;-74
2021/01/26 06:55:17;;;;;;;18.23;17.33;;;2.50;99.90;;;;;;5114116;27;20452;-74
2021/01/26 06:58:16;;;;;;;17.63;16.73;;;2.60;99.90;;;;;;5108767;28;20465;-75
2021/01/26 07:00:50;;;;;;;18.53;17.60;;;2.50;99.90;;;;;;5110141;28;21632;-76
2021/01/26 07:04:04;;;;;;;17.77;16.87;;;2.60;99.90;;;;;;5113473;28;21016;-75
2021/01/26 07:07:04;;;;;;;19.00;18.00;;;2.60;99.90;;;;;;5096981;28;20552;-75
2021/01/26 07:10:03;;;;;;;18.90;17.90;;;2.60;99.90;;;;;;5061859;28;20457;-75
2021/01/26 07:13:01;;;;;;;18.17;17.27;;;2.50;99.90;;;;;;5100732;28;20901;-75
2021/01/26 07:15:54;;;;;;;17.93;17.03;;;2.60;99.90;;;;;;5095796;28;20456;-75
2021/01/26 07:18:51;;;;;;;18.50;17.60;;;2.60;99.90;;;;;;5101887;28;20453;-75
2021/01/26 07:21:31;;;;;;;18.37;17.47;;;2.50;99.90;;;;;;5092538;28;20457;-74
2021/01/26 07:24:11;;;;;;;18.47;17.57;;;2.60;99.90;;;;;;5099960;28;20465;-75
2021/01/26 07:26:57;;;;;;;18.90;17.90;;;2.50;99.90;;;;;;5099556;28;20466;-75
2021/01/26 07:29:53;;;;;;;17.53;16.63;;;2.50;99.90;;;;;;5098643;28;20463;-75
2021/01/26 07:32:25;;;;;;;17.77;16.87;;;2.50;99.90;;;;;;5095426;28;20806;-76
2021/01/26 07:35:00;;;;;;;17.10;16.30;;;2.50;99.90;;;;;;5094610;28;20471;-75
2021/01/26 07:37:35;;;;;;;16.30;15.50;;;2.60;99.90;;;;;;5091869;28;20460;-75
2021/01/26 07:40:10;;;;;;;17.17;16.37;;;2.60;99.90;;;;;;5096336;28;20461;-74
2021/01/26 07:42:42;;;;;;;17.27;16.47;;;2.60;99.90;;;;;;5104186;28;20542;-75
2021/01/26 07:45:15;;;;;;;16.77;15.97;;;2.60;99.90;;;;;;5096504;28;20456;-74
2021/01/26 07:47:45;;;;;;;16.93;16.13;;;2.60;99.90;;;;;;5099280;28;20971;-76
2021/01/26 07:50:20;;;;;;;17.03;16.23;;;2.60;99.90;;;;;;5094521;28;20457;-74
2021/01/26 07:52:48;;;;;;;17.27;16.40;;;2.60;99.90;;;;;;5100026;28;21033;-75
2021/01/26 07:55:22;;;;;;;17.23;16.33;;;2.60;99.90;;;;;;5105721;28;20524;-74
2021/01/26 07:57:55;;;;;;;18.00;17.10;;;2.60;99.90;;;;;;5097640;28;20699;-74
2021/01/26 08:00:26;;;;;;;18.27;17.37;;;2.60;99.90;;;;;;5093751;28;20472;-75
2021/01/26 08:02:55;;;;;;;17.73;16.83;;;2.70;99.90;;;;;;5098841;28;20473;-75
2021/01/26 08:05:42;;;;;;;17.77;16.87;;;2.70;99.90;;;;;;5099810;28;20510;-74
2021/01/26 08:08:15;;;;;;;18.00;17.10;;;2.60;99.90;;;;;;5097327;28;20467;-74
2021/01/26 08:10:41;;;;;;;17.17;16.27;;;2.60;99.90;;;;;;5100015;28;20460;-75
2021/01/26 08:13:08;;;;;;;17.33;16.43;;;2.50;99.90;;;;;;5101552;28;20479;-75
2021/01/26 08:15:39;;;;;;;17.03;16.23;;;2.50;99.90;;;;;;5098976;28;20462;-74
2021/01/26 08:18:21;;;;;;;17.53;16.63;;;2.60;99.90;;;;;;5099865;28;20482;-74
2021/01/26 08:20:47;;;;;;;16.73;15.93;;;2.70;99.90;;;;;;5095608;28;20458;-74
2021/01/26 08:23:22;;;;;;;16.97;16.17;;;2.70;99.90;;;;;;5096016;28;20469;-74
2021/01/26 08:25:53;;;;;;;17.83;16.90;;;2.70;99.90;;;;;;5096186;28;20465;-74
2021/01/26 08:28:44;;;;;;;18.50;17.50;;;2.60;99.90;;;;;;5097973;28;20840;-74
2021/01/26 08:31:28;;;;;;;18.83;17.83;;;2.70;99.90;;;;;;5100123;28;20460;-74
2021/01/26 08:33:56;;;;;;;19.50;18.40;;;2.70;99.90;;;;;;5089831;28;20568;-74
2021/01/26 08:36:29;;;;;;;18.87;17.87;;;2.70;99.90;;;;;;5096482;28;20953;-75
2021/01/26 08:38:58;;;;;;;19.87;18.77;;;2.70;99.90;;;;;;5095794;28;20460;-75
2021/01/26 08:41:40;;;;;;;18.63;17.63;;;2.70;99.90;;;;;;5094627;28;20467;-75
2021/01/26 08:44:30;;;;;;;18.33;17.37;;;2.80;99.90;;;;;;5097885;28;20456;-75
2021/01/26 08:46:58;;;;;;;18.37;17.40;;;2.80;99.90;;;;;;5096082;28;20787;-75
2021/01/26 08:49:27;;;;;;;17.83;16.93;;;2.80;99.90;;;;;;5097511;28;20465;-75
2021/01/26 08:51:55;;;;;;;17.60;16.70;;;2.90;99.90;;;;;;5094045;28;20483;-74
2021/01/26 08:54:41;;;;;;;17.13;16.33;;;2.80;99.90;;;;;;5099429;28;20473;-74
2021/01/26 08:57:22;;;;;;;16.90;16.07;;;2.90;99.90;;;;;;5098091;28;20498;-75
2021/01/26 08:59:50;;;;;;;16.57;15.77;;;3.00;99.90;;;;;;5093444;28;20511;-74
2021/01/26 09:02:36;;;;;;;16.50;15.70;;;2.90;99.90;;;;;;5095995;28;20836;-74
2021/01/26 09:05:04;;;;;;;16.40;15.60;;;3.00;99.90;;;;;;5100668;28;20461;-74
2021/01/26 09:07:52;;;;;;;15.60;14.80;;;3.00;99.90;;;;;;5093739;28;20863;-74
2021/01/26 09:10:29;;;;;;;15.37;14.67;;;3.00;99.90;;;;;;5091987;28;20458;-74
2021/01/26 09:13:03;;;;;;;14.67;13.97;;;3.00;99.90;;;;;;5099015;28;20489;-75
2021/01/26 09:15:30;;;;;;;13.37;12.77;;;3.10;99.90;;;;;;5102424;28;20481;-74
2021/01/26 09:18:01;;;;;;;13.50;12.90;;;3.20;99.90;;;;;;5096191;28;20554;-74
2021/01/26 09:20:30;;;;;;;13.40;12.80;;;3.20;99.90;;;;;;5102407;28;20956;-74
2021/01/26 09:23:05;;;;;;;13.40;12.80;;;3.30;99.90;;;;;;5093286;28;20449;-74
2021/01/26 09:25:36;;;;;;;13.70;13.10;;;3.40;99.90;;;;;;5095669;28;20463;-75
2021/01/26 09:28:06;;;;;;;13.50;12.90;;;3.40;99.90;;;;;;5095209;28;20844;-74
2021/01/26 09:30:33;;;;;;;20.23;18.70;;;3.40;99.90;;;;;;5100450;28;20471;-74
2021/01/26 09:33:05;;;;;;;19.37;17.57;;;3.40;99.90;;;;;;5097730;28;20510;-74
2021/01/26 09:35:36;;;;;;;19.57;18.10;;;3.50;99.90;;;;;;5097139;28;20466;-74
2021/01/26 09:38:06;;;;;;;20.67;18.87;;;3.40;99.90;;;;;;5099663;28;20511;-74
2021/01/26 09:40:33;;;;;;;23.10;20.60;;;3.50;99.90;;;;;;5100260;28;20480;-74
2021/01/26 09:43:16;;;;;;;21.23;19.20;;;3.50;99.90;;;;;;5097664;28;20967;-74
2021/01/26 09:45:43;;;;;;;22.23;19.93;;;3.50;99.90;;;;;;5097626;28;20457;-74
2021/01/26 09:48:16;;;;;;;23.13;21.10;;;3.50;99.90;;;;;;5097411;28;20457;-74
2021/01/26 09:50:43;;;;;;;25.13;18.90;;;3.50;99.90;;;;;;5092190;28;20464;-74
2021/01/26 09:53:10;;;;;;;22.17;20.07;;;3.60;99.90;;;;;;5093862;28;20497;-75
2021/01/26 09:55:37;;;;;;;23.40;20.77;;;3.50;99.90;;;;;;5094369;28;21020;-74
2021/01/26 09:58:04;;;;;;;20.87;19.07;;;3.50;99.90;;;;;;5094459;28;20461;-74
2021/01/26 10:00:31;;;;;;;20.47;18.40;;;3.50;99.90;;;;;;5093410;28;20464;-74
2021/01/26 10:03:00;;;;;;;20.37;18.80;;;3.50;99.90;;;;;;5087458;28;20479;-74
2021/01/26 10:05:29;;;;;;;19.83;18.13;;;3.60;99.90;;;;;;5091262;28;20458;-74
2021/01/26 10:08:07;;;;;;;18.80;17.40;;;3.60;99.90;;;;;;5089251;28;20461;-74
2021/01/26 10:10:34;;;;;;;20.50;18.80;;;3.90;99.90;;;;;;5088803;28;20888;-74
2021/01/26 10:13:19;;;;;;;20.30;18.27;;;3.80;99.90;;;;;;5093692;28;21143;-74
2021/01/26 10:15:45;;;;;;;21.47;19.60;;;3.80;99.90;;;;;;5094910;28;20553;-74
2021/01/26 10:18:15;;;;;;;22.83;20.60;;;3.80;99.90;;;;;;5092783;28;20508;-74
2021/01/26 10:20:58;;;;;;;22.97;20.90;;;3.90;99.90;;;;;;5090937;28;20507;-74
2021/01/26 10:23:32;;;;;;;28.13;22.17;;;3.80;99.90;;;;;;5085548;28;20476;-74
2021/01/26 10:26:16;;;;;;;24.27;20.87;;;3.70;99.90;;;;;;5098858;28;20471;-74
2021/01/26 10:28:58;;;;;;;24.63;22.30;;;3.70;99.90;;;;;;5085476;28;20457;-74
2021/01/26 10:31:26;;;;;;;24.80;22.40;;;3.60;99.90;;;;;;5091933;28;20460;-73
2021/01/26 10:33:53;;;;;;;25.50;23.57;;;3.60;99.90;;;;;;5092832;28;21029;-73
2021/01/26 10:36:25;;;;;;;26.53;23.73;;;3.40;99.90;;;;;;5090012;28;20457;-73
2021/01/26 10:38:52;;;;;;;27.60;24.80;;;3.40;99.90;;;;;;5091405;28;20561;-74
2021/01/26 10:41:24;;;;;;;29.37;26.37;;;3.30;99.90;;;;;;5097153;28;20458;-74
2021/01/26 10:44:05;;;;;;;26.60;23.77;;;3.40;99.90;;;;;;5103290;28;20554;-73
2021/01/26 10:46:34;;;;;;;27.07;24.33;;;3.40;99.90;;;;;;5099822;28;20928;-73
2021/01/26 10:49:17;;;;;;;26.80;23.93;;;3.40;99.90;;;;;;5102113;28;20464;-74
2021/01/26 10:51:47;;;;;;;26.73;24.10;;;3.40;99.90;;;;;;5098952;28;20480;-73
2021/01/26 10:54:13;;;;;;;25.87;23.53;;;3.40;99.90;;;;;;5096040;28;21045;-73
2021/01/26 10:56:42;;;;;;;27.13;24.63;;;3.50;99.90;;;;;;5094427;28;20519;-74
2021/01/26 10:59:08;;;;;;;25.63;23.53;;;3.50;99.90;;;;;;5096915;28;20457;-73
2021/01/26 11:01:40;;;;;;;24.80;22.77;;;3.50;99.90;;;;;;5096073;28;20464;-73
2021/01/26 11:04:07;;;;;;;27.37;24.70;;;3.50;99.90;;;;;;5094088;28;20487;-73
2021/01/26 11:06:34;;;;;;;25.70;23.20;;;3.50;99.90;;;;;;5098009;28;20461;-74
2021/01/26 11:09:01;;;;;;;27.37;24.20;;;3.60;99.90;;;;;;5094120;28;20465;-74
2021/01/26 11:11:29;;;;;;;30.73;26.77;;;3.60;99.90;;;;;;5094455;28;20456;-74
2021/01/26 11:13:57;;;;;;;28.53;26.07;;;3.60;99.90;;;;;;5092271;28;20496;-74
2021/01/26 11:16:25;;;;;;;29.27;26.47;;;3.60;99.90;;;;;;5101668;28;20464;-73
2021/01/26 11:18:51;;;;;;;29.57;25.00;;;3.60;99.90;;;;;;5092805;28;20520;-73
2021/01/26 11:21:17;;;;;;;27.30;24.30;;;3.70;99.90;;;;;;5098097;28;20472;-74
2021/01/26 11:23:44;;;;;;;25.63;23.50;;;3.70;99.90;;;;;;5093322;28;20538;-73
2021/01/26 11:26:14;;;;;;;37.50;26.70;;;3.80;99.90;;;;;;5091412;28;20465;-73
2021/01/26 11:28:40;;;;;;;27.73;25.00;;;3.80;99.90;;;;;;5095028;28;20465;-73
2021/01/26 11:31:07;;;;;;;25.90;23.77;;;3.90;99.90;;;;;;5095729;28;20464;-73
2021/01/26 11:33:35;;;;;;;26.67;24.00;;;4.00;99.90;;;;;;5092140;28;21094;-73
2021/01/26 11:36:01;;;;;;;26.53;24.23;;;3.90;99.90;;;;;;5095927;28;20469;-73
2021/01/26 11:38:28;;;;;;;27.03;24.23;;;3.90;99.90;;;;;;5099547;28;20465;-73
2021/01/26 11:40:56;;;;;;;24.53;22.60;;;3.90;99.90;;;;;;5093912;28;20465;-73
2021/01/26 11:43:23;;;;;;;25.37;23.27;;;4.00;99.90;;;;;;5096282;28;20485;-73
2021/01/26 11:45:50;;;;;;;27.50;24.60;;;4.00;99.90;;;;;;5095233;28;20458;-74
2021/01/26 11:48:17;;;;;;;25.77;23.20;;;4.00;99.90;;;;;;5094006;28;20471;-74
2021/01/26 11:50:43;;;;;;;26.50;23.77;;;4.00;99.90;;;;;;5088757;28;20465;-74
2021/01/26 11:53:14;;;;;;;26.17;23.67;;;4.00;99.90;;;;;;5089194;28;20710;-74
2021/01/26 11:55:41;;;;;;;29.40;23.40;;;4.10;99.90;;;;;;5092916;28;21232;-74
2021/01/26 11:58:08;;;;;;;23.23;21.23;;;4.30;99.90;;;;;;5092086;28;20461;-74
2021/01/26 12:00:36;;;;;;;27.47;23.57;;;4.30;99.90;;;;;;5092611;28;20477;-73
2021/01/26 12:03:04;;;;;;;22.77;20.97;;;4.40;99.90;;;;;;5092952;28;20463;-73
2021/01/26 12:05:33;;;;;;;25.17;22.67;;;4.40;99.90;;;;;;5096371;28;20462;-74
2021/01/26 12:07:59;;;;;;;28.90;22.07;;;4.50;99.90;;;;;;5093097;28;20461;-74
2021/01/26 12:10:26;;;;;;;28.07;23.60;;;4.50;99.90;;;;;;5096729;28;20474;-74
2021/01/26 12:12:54;;;;;;;25.17;22.70;;;4.50;99.90;;;;;;5093636;28;20489;-74
2021/01/26 12:15:22;;;;;;;24.20;21.40;;;4.50;99.90;;;;;;5095565;28;20462;-74
2021/01/26 12:17:50;;;;;;;22.47;20.30;;;4.60;99.90;;;;;;5095602;28;20457;-74
2021/01/26 12:20:17;;;;;;;22.10;20.10;;;4.70;99.90;;;;;;5093322;28;20515;-74
2021/01/26 12:22:43;;;;;;;24.47;21.33;;;4.70;99.90;;;;;;5099748;28;20485;-74
2021/01/26 12:25:11;;;;;;;23.30;21.07;;;4.60;99.90;;;;;;5087454;28;20828;-74
2021/01/26 12:27:37;;;;;;;23.07;20.93;;;4.60;99.90;;;;;;5088412;28;20470;-74
2021/01/26 12:30:05;;;;;;;24.03;21.70;;;4.50;99.90;;;;;;5093809;28;20930;-74
2021/01/26 12:32:33;;;;;;;23.20;20.90;;;4.50;99.90;;;;;;5091715;28;20752;-74
2021/01/26 12:35:00;;;;;;;25.17;20.83;;;4.70;99.90;;;;;;5096127;28;20465;-74
2021/01/26 12:37:27;;;;;;;28.60;21.10;;;4.80;99.90;;;;;;5093696;28;20461;-74
2021/01/26 12:39:53;;;;;;;21.87;18.90;;;4.90;99.90;;;;;;5094768;28;20828;-74
2021/01/26 12:42:20;;;;;;;23.17;21.17;;;5.00;99.90;;;;;;5091498;28;20469;-74
2021/01/26 12:44:47;;;;;;;23.80;20.50;;;5.20;99.90;;;;;;5099107;28;20872;-74
2021/01/26 12:47:13;;;;;;;20.83;19.17;;;5.20;99.90;;;;;;5095056;28;20837;-74
2021/01/26 12:49:40;;;;;;;22.20;19.80;;;5.10;99.90;;;;;;5092445;28;20458;-74
2021/01/26 12:52:08;;;;;;;21.37;19.60;;;5.20;99.90;;;;;;5091929;28;20489;-74
2021/01/26 12:54:34;;;;;;;26.47;20.40;;;5.10;99.90;;;;;;5088267;28;20492;-74
2021/01/26 12:57:01;;;;;;;30.20;20.10;;;5.10;99.90;;;;;;5095660;28;20463;-74
2021/01/26 12:59:27;;;;;;;21.10;19.50;;;5.10;99.90;;;;;;5095839;28;20522;-74
2021/01/26 13:01:54;;;;;;;22.17;20.57;;;5.10;99.90;;;;;;5088202;28;20512;-74
2021/01/26 13:04:21;;;;;;;27.23;19.83;;;5.10;99.90;;;;;;5094154;28;20958;-74
2021/01/26 13:06:47;;;;;;;22.57;20.03;;;5.30;99.90;;;;;;5093540;28;20462;-74
2021/01/26 13:09:15;;;;;;;20.57;19.00;;;5.70;99.90;;;;;;5097331;28;20458;-74